sensor_id;sensor_type;location;lat;lon;timestamp;P1;durP1;ratioP1;P2;durP2;ratioP2
59147;SDS011;44930;52.878;6.168;2023-06-22T00:02:16;14.02;;;12.63;;
59147;SDS011;44930;52.878;6.168;2023-06-22T00:04:42;13.90;;;12.05;;
59147;SDS011;44930;52.878;6.168;2023-06-22T00:07:08;12.80;;;11.38;;
59147;SDS011;44930;52.878;6.168;2023-06-22T00:09:33;13.23;;;11.85;;
59147;SDS011;44930;52.878;6.168;2023-06-22T00:11:59;16.80;;;14.05;;
59147;SDS011;44930;52.878;6.168;2023-06-22T00:14:25;16.48;;;14.77;;
59147;SDS011;44930;52.878;6.168;2023-06-22T00:16:50;16.20;;;13.27;;
59147;SDS011;44930;52.878;6.168;2023-06-22T00:19:20;15.43;;;13.35;;
59147;SDS011;44930;52.878;6.168;2023-06-22T00:21:47;16.88;;;14.32;;
59147;SDS011;44930;52.878;6.168;2023-06-22T00:24:13;14.10;;;12.10;;
59147;SDS011;44930;52.878;6.168;2023-06-22T00:26:38;11.77;;;9.38;;
59147;SDS011;44930;52.878;6.168;2023-06-22T00:29:04;8.38;;;7.57;;
59147;SDS011;44930;52.878;6.168;2023-06-22T00:31:29;15.10;;;13.52;;
59147;SDS011;44930;52.878;6.168;2023-06-22T00:33:55;19.38;;;15.98;;
59147;SDS011;44930;52.878;6.168;2023-06-22T00:36:20;19.05;;;17.10;;
59147;SDS011;44930;52.878;6.168;2023-06-22T00:38:46;17.05;;;15.25;;
59147;SDS011;44930;52.878;6.168;2023-06-22T00:41:12;19.70;;;17.33;;
59147;SDS011;44930;52.878;6.168;2023-06-22T00:43:38;18.15;;;15.38;;
59147;SDS011;44930;52.878;6.168;2023-06-22T00:46:03;15.73;;;14.13;;
59147;SDS011;44930;52.878;6.168;2023-06-22T00:48:29;18.23;;;13.75;;
59147;SDS011;44930;52.878;6.168;2023-06-22T00:50:54;16.10;;;13.77;;
59147;SDS011;44930;52.878;6.168;2023-06-22T00:53:21;15.02;;;13.63;;
59147;SDS011;44930;52.878;6.168;2023-06-22T00:55:48;15.48;;;13.85;;
59147;SDS011;44930;52.878;6.168;2023-06-22T00:58:16;16.98;;;14.88;;
59147;SDS011;44930;52.878;6.168;2023-06-22T01:00:46;15.40;;;13.80;;
59147;SDS011;44930;52.878;6.168;2023-06-22T01:03:13;14.95;;;12.93;;
59147;SDS011;44930;52.878;6.168;2023-06-22T01:05:39;13.77;;;12.48;;
59147;SDS011;44930;52.878;6.168;2023-06-22T01:13:41;10.88;;;9.70;;
59147;SDS011;44930;52.878;6.168;2023-06-22T01:16:17;11.00;;;9.85;;
59147;SDS011;44930;52.878;6.168;2023-06-22T01:18:55;11.45;;;10.25;;
59147;SDS011;44930;52.878;6.168;2023-06-22T01:21:24;9.13;;;7.47;;
59147;SDS011;44930;52.878;6.168;2023-06-22T01:26:59;21.15;;;14.10;;
59147;SDS011;44930;52.878;6.168;2023-06-22T01:29:34;15.23;;;13.55;;
59147;SDS011;44930;52.878;6.168;2023-06-22T01:32:01;22.63;;;15.07;;
59147;SDS011;44930;52.878;6.168;2023-06-22T01:34:29;16.27;;;14.45;;
59147;SDS011;44930;52.878;6.168;2023-06-22T01:36:56;12.50;;;11.07;;
59147;SDS011;44930;52.878;6.168;2023-06-22T01:39:23;12.23;;;10.10;;
59147;SDS011;44930;52.878;6.168;2023-06-22T01:41:50;14.95;;;12.75;;
59147;SDS011;44930;52.878;6.168;2023-06-22T01:44:16;17.65;;;13.55;;
59147;SDS011;44930;52.878;6.168;2023-06-22T01:46:42;19.70;;;14.57;;
59147;SDS011;44930;52.878;6.168;2023-06-22T01:49:08;13.30;;;11.48;;
59147;SDS011;44930;52.878;6.168;2023-06-22T01:51:35;13.20;;;11.20;;
59147;SDS011;44930;52.878;6.168;2023-06-22T01:54:01;14.10;;;12.35;;
59147;SDS011;44930;52.878;6.168;2023-06-22T01:56:27;87.05;;;16.30;;
59147;SDS011;44930;52.878;6.168;2023-06-22T02:01:41;28.92;;;15.23;;
59147;SDS011;44930;52.878;6.168;2023-06-22T02:04:11;15.40;;;13.75;;
59147;SDS011;44930;52.878;6.168;2023-06-22T02:06:43;15.57;;;12.43;;
59147;SDS011;44930;52.878;6.168;2023-06-22T02:09:12;14.40;;;12.68;;
59147;SDS011;44930;52.878;6.168;2023-06-22T02:11:42;15.70;;;13.40;;
59147;SDS011;44930;52.878;6.168;2023-06-22T02:14:10;18.90;;;15.98;;
59147;SDS011;44930;52.878;6.168;2023-06-22T02:16:38;15.73;;;13.60;;
59147;SDS011;44930;52.878;6.168;2023-06-22T02:19:03;18.63;;;15.25;;
59147;SDS011;44930;52.878;6.168;2023-06-22T02:21:31;60.72;;;16.55;;
59147;SDS011;44930;52.878;6.168;2023-06-22T02:23:57;30.48;;;14.75;;
59147;SDS011;44930;52.878;6.168;2023-06-22T02:26:23;65.93;;;16.25;;
59147;SDS011;44930;52.878;6.168;2023-06-22T02:28:50;81.82;;;16.88;;
59147;SDS011;44930;52.878;6.168;2023-06-22T02:31:17;18.00;;;16.30;;
59147;SDS011;44930;52.878;6.168;2023-06-22T02:33:43;79.72;;;17.45;;
59147;SDS011;44930;52.878;6.168;2023-06-22T02:36:09;41.15;;;14.60;;
59147;SDS011;44930;52.878;6.168;2023-06-22T02:38:37;14.27;;;12.88;;
59147;SDS011;44930;52.878;6.168;2023-06-22T02:41:04;17.00;;;12.18;;
59147;SDS011;44930;52.878;6.168;2023-06-22T02:43:29;21.30;;;13.38;;
59147;SDS011;44930;52.878;6.168;2023-06-22T02:45:55;13.77;;;12.50;;
59147;SDS011;44930;52.878;6.168;2023-06-22T02:48:20;13.02;;;11.88;;
59147;SDS011;44930;52.878;6.168;2023-06-22T02:50:46;12.30;;;11.20;;
59147;SDS011;44930;52.878;6.168;2023-06-22T02:53:11;16.73;;;10.98;;
59147;SDS011;44930;52.878;6.168;2023-06-22T02:55:37;16.75;;;13.65;;
59147;SDS011;44930;52.878;6.168;2023-06-22T02:58:04;11.60;;;10.13;;
59147;SDS011;44930;52.878;6.168;2023-06-22T03:00:30;10.98;;;9.85;;
59147;SDS011;44930;52.878;6.168;2023-06-22T03:02:56;15.82;;;11.43;;
59147;SDS011;44930;52.878;6.168;2023-06-22T03:05:22;60.10;;;14.60;;
59147;SDS011;44930;52.878;6.168;2023-06-22T03:07:48;74.47;;;15.27;;
59147;SDS011;44930;52.878;6.168;2023-06-22T03:10:14;54.78;;;16.27;;
59147;SDS011;44930;52.878;6.168;2023-06-22T03:12:41;55.45;;;14.40;;
59147;SDS011;44930;52.878;6.168;2023-06-22T03:15:08;48.95;;;15.52;;
59147;SDS011;44930;52.878;6.168;2023-06-22T03:17:35;22.52;;;14.60;;
59147;SDS011;44930;52.878;6.168;2023-06-22T03:20:03;27.63;;;13.88;;
59147;SDS011;44930;52.878;6.168;2023-06-22T03:22:37;43.95;;;13.63;;
59147;SDS011;44930;52.878;6.168;2023-06-22T03:25:03;48.55;;;13.77;;
59147;SDS011;44930;52.878;6.168;2023-06-22T03:27:29;26.65;;;13.63;;
59147;SDS011;44930;52.878;6.168;2023-06-22T03:29:56;74.88;;;13.75;;
59147;SDS011;44930;52.878;6.168;2023-06-22T03:32:22;44.00;;;14.52;;
59147;SDS011;44930;52.878;6.168;2023-06-22T03:34:48;66.93;;;14.88;;
59147;SDS011;44930;52.878;6.168;2023-06-22T03:37:14;28.38;;;14.00;;
59147;SDS011;44930;52.878;6.168;2023-06-22T03:39:40;52.10;;;14.45;;
59147;SDS011;44930;52.878;6.168;2023-06-22T03:42:06;84.53;;;15.75;;
59147;SDS011;44930;52.878;6.168;2023-06-22T03:44:32;81.80;;;14.60;;
59147;SDS011;44930;52.878;6.168;2023-06-22T03:46:58;66.15;;;14.88;;
59147;SDS011;44930;52.878;6.168;2023-06-22T03:49:24;54.65;;;14.82;;
59147;SDS011;44930;52.878;6.168;2023-06-22T03:51:49;26.63;;;15.27;;
59147;SDS011;44930;52.878;6.168;2023-06-22T03:54:15;34.95;;;14.43;;
59147;SDS011;44930;52.878;6.168;2023-06-22T03:56:40;37.10;;;14.90;;
59147;SDS011;44930;52.878;6.168;2023-06-22T03:59:06;28.85;;;15.98;;
59147;SDS011;44930;52.878;6.168;2023-06-22T04:01:31;90.30;;;15.90;;
59147;SDS011;44930;52.878;6.168;2023-06-22T04:03:57;92.22;;;16.70;;
59147;SDS011;44930;52.878;6.168;2023-06-22T04:06:22;60.53;;;15.30;;
59147;SDS011;44930;52.878;6.168;2023-06-22T04:08:48;41.85;;;15.60;;
59147;SDS011;44930;52.878;6.168;2023-06-22T04:11:16;15.30;;;13.85;;
59147;SDS011;44930;52.878;6.168;2023-06-22T04:13:42;24.05;;;15.02;;
59147;SDS011;44930;52.878;6.168;2023-06-22T04:16:08;17.65;;;15.82;;
59147;SDS011;44930;52.878;6.168;2023-06-22T04:18:34;50.60;;;16.70;;
59147;SDS011;44930;52.878;6.168;2023-06-22T04:20:59;22.55;;;16.63;;
59147;SDS011;44930;52.878;6.168;2023-06-22T04:23:25;31.33;;;16.33;;
59147;SDS011;44930;52.878;6.168;2023-06-22T04:25:50;46.95;;;17.50;;
59147;SDS011;44930;52.878;6.168;2023-06-22T04:28:16;48.58;;;17.75;;
59147;SDS011;44930;52.878;6.168;2023-06-22T04:30:42;27.98;;;15.82;;
59147;SDS011;44930;52.878;6.168;2023-06-22T04:33:14;32.97;;;17.30;;
59147;SDS011;44930;52.878;6.168;2023-06-22T04:35:40;24.80;;;16.45;;
59147;SDS011;44930;52.878;6.168;2023-06-22T04:38:09;23.08;;;19.33;;
59147;SDS011;44930;52.878;6.168;2023-06-22T04:40:38;20.40;;;18.42;;
59147;SDS011;44930;52.878;6.168;2023-06-22T04:43:04;27.50;;;19.52;;
59147;SDS011;44930;52.878;6.168;2023-06-22T04:45:31;27.88;;;20.60;;
59147;SDS011;44930;52.878;6.168;2023-06-22T04:47:57;38.30;;;22.15;;
59147;SDS011;44930;52.878;6.168;2023-06-22T04:50:23;26.60;;;22.83;;
59147;SDS011;44930;52.878;6.168;2023-06-22T04:52:49;25.60;;;22.98;;
59147;SDS011;44930;52.878;6.168;2023-06-22T04:55:15;39.72;;;25.08;;
59147;SDS011;44930;52.878;6.168;2023-06-22T04:57:45;55.70;;;25.88;;
59147;SDS011;44930;52.878;6.168;2023-06-22T05:00:18;40.63;;;25.27;;
59147;SDS011;44930;52.878;6.168;2023-06-22T05:02:45;36.60;;;26.27;;
59147;SDS011;44930;52.878;6.168;2023-06-22T05:05:12;27.80;;;24.90;;
59147;SDS011;44930;52.878;6.168;2023-06-22T05:07:45;33.42;;;26.35;;
59147;SDS011;44930;52.878;6.168;2023-06-22T05:10:13;29.10;;;26.10;;
59147;SDS011;44930;52.878;6.168;2023-06-22T05:12:39;30.30;;;26.92;;
59147;SDS011;44930;52.878;6.168;2023-06-22T05:15:06;28.27;;;25.38;;
59147;SDS011;44930;52.878;6.168;2023-06-22T05:17:33;28.52;;;25.40;;
59147;SDS011;44930;52.878;6.168;2023-06-22T05:19:59;31.48;;;27.55;;
59147;SDS011;44930;52.878;6.168;2023-06-22T05:22:24;34.40;;;28.42;;
59147;SDS011;44930;52.878;6.168;2023-06-22T05:24:50;34.03;;;28.73;;
59147;SDS011;44930;52.878;6.168;2023-06-22T05:27:15;43.67;;;32.05;;
59147;SDS011;44930;52.878;6.168;2023-06-22T05:29:41;39.28;;;33.72;;
59147;SDS011;44930;52.878;6.168;2023-06-22T05:32:09;40.95;;;31.08;;
59147;SDS011;44930;52.878;6.168;2023-06-22T05:34:35;37.00;;;32.15;;
59147;SDS011;44930;52.878;6.168;2023-06-22T05:37:02;44.45;;;34.35;;
59147;SDS011;44930;52.878;6.168;2023-06-22T05:39:28;45.05;;;35.95;;
59147;SDS011;44930;52.878;6.168;2023-06-22T05:41:53;40.47;;;33.33;;
59147;SDS011;44930;52.878;6.168;2023-06-22T05:44:19;44.15;;;36.35;;
59147;SDS011;44930;52.878;6.168;2023-06-22T05:46:45;44.30;;;35.45;;
59147;SDS011;44930;52.878;6.168;2023-06-22T05:49:12;42.58;;;34.55;;
59147;SDS011;44930;52.878;6.168;2023-06-22T05:51:37;45.28;;;33.58;;
59147;SDS011;44930;52.878;6.168;2023-06-22T05:54:03;43.95;;;34.65;;
59147;SDS011;44930;52.878;6.168;2023-06-22T05:56:29;40.80;;;33.50;;
59147;SDS011;44930;52.878;6.168;2023-06-22T05:58:55;41.17;;;34.08;;
59147;SDS011;44930;52.878;6.168;2023-06-22T06:01:20;43.20;;;33.83;;
59147;SDS011;44930;52.878;6.168;2023-06-22T06:03:46;48.08;;;35.78;;
59147;SDS011;44930;52.878;6.168;2023-06-22T06:06:11;44.63;;;32.60;;
59147;SDS011;44930;52.878;6.168;2023-06-22T06:08:38;39.63;;;30.60;;
59147;SDS011;44930;52.878;6.168;2023-06-22T06:11:04;38.22;;;29.92;;
59147;SDS011;44930;52.878;6.168;2023-06-22T06:13:29;34.88;;;29.08;;
59147;SDS011;44930;52.878;6.168;2023-06-22T06:15:55;38.08;;;29.70;;
59147;SDS011;44930;52.878;6.168;2023-06-22T06:18:22;35.63;;;30.08;;
59147;SDS011;44930;52.878;6.168;2023-06-22T06:20:48;35.58;;;28.38;;
59147;SDS011;44930;52.878;6.168;2023-06-22T06:23:13;34.05;;;25.58;;
59147;SDS011;44930;52.878;6.168;2023-06-22T06:25:39;24.42;;;20.35;;
59147;SDS011;44930;52.878;6.168;2023-06-22T06:28:04;29.90;;;23.40;;
59147;SDS011;44930;52.878;6.168;2023-06-22T06:30:30;23.15;;;19.17;;
59147;SDS011;44930;52.878;6.168;2023-06-22T06:32:56;22.13;;;18.25;;
59147;SDS011;44930;52.878;6.168;2023-06-22T06:35:21;21.85;;;19.50;;
59147;SDS011;44930;52.878;6.168;2023-06-22T06:37:48;24.77;;;18.88;;
59147;SDS011;44930;52.878;6.168;2023-06-22T06:40:15;24.23;;;18.90;;
59147;SDS011;44930;52.878;6.168;2023-06-22T06:42:45;20.90;;;18.67;;
59147;SDS011;44930;52.878;6.168;2023-06-22T06:45:12;22.65;;;17.60;;
59147;SDS011;44930;52.878;6.168;2023-06-22T06:47:42;19.95;;;17.20;;
59147;SDS011;44930;52.878;6.168;2023-06-22T06:50:08;17.98;;;15.52;;
59147;SDS011;44930;52.878;6.168;2023-06-22T06:52:34;18.08;;;14.98;;
59147;SDS011;44930;52.878;6.168;2023-06-22T06:55:00;17.20;;;15.35;;
59147;SDS011;44930;52.878;6.168;2023-06-22T06:57:26;17.60;;;15.15;;
59147;SDS011;44930;52.878;6.168;2023-06-22T06:59:55;18.92;;;14.60;;
59147;SDS011;44930;52.878;6.168;2023-06-22T07:02:21;19.95;;;15.38;;
59147;SDS011;44930;52.878;6.168;2023-06-22T07:04:47;17.88;;;14.68;;
59147;SDS011;44930;52.878;6.168;2023-06-22T07:07:13;18.50;;;13.55;;
59147;SDS011;44930;52.878;6.168;2023-06-22T07:09:39;16.90;;;12.40;;
59147;SDS011;44930;52.878;6.168;2023-06-22T07:12:05;13.68;;;11.88;;
59147;SDS011;44930;52.878;6.168;2023-06-22T07:14:31;13.30;;;10.80;;
59147;SDS011;44930;52.878;6.168;2023-06-22T07:16:57;14.07;;;11.63;;
59147;SDS011;44930;52.878;6.168;2023-06-22T07:19:26;13.95;;;10.85;;
59147;SDS011;44930;52.878;6.168;2023-06-22T07:21:53;14.93;;;11.45;;
59147;SDS011;44930;52.878;6.168;2023-06-22T07:24:22;15.25;;;11.15;;
59147;SDS011;44930;52.878;6.168;2023-06-22T07:26:48;12.32;;;11.02;;
59147;SDS011;44930;52.878;6.168;2023-06-22T07:29:15;13.45;;;11.52;;
59147;SDS011;44930;52.878;6.168;2023-06-22T07:31:41;14.80;;;11.07;;
59147;SDS011;44930;52.878;6.168;2023-06-22T07:34:07;16.50;;;13.33;;
59147;SDS011;44930;52.878;6.168;2023-06-22T07:36:33;11.98;;;10.70;;
59147;SDS011;44930;52.878;6.168;2023-06-22T07:39:00;13.63;;;11.02;;
59147;SDS011;44930;52.878;6.168;2023-06-22T07:41:27;15.55;;;12.38;;
59147;SDS011;44930;52.878;6.168;2023-06-22T07:43:53;14.95;;;11.85;;
59147;SDS011;44930;52.878;6.168;2023-06-22T07:46:19;15.38;;;11.18;;
59147;SDS011;44930;52.878;6.168;2023-06-22T07:48:44;12.02;;;10.43;;
59147;SDS011;44930;52.878;6.168;2023-06-22T07:51:10;16.48;;;11.40;;
59147;SDS011;44930;52.878;6.168;2023-06-22T07:53:39;15.75;;;11.30;;
59147;SDS011;44930;52.878;6.168;2023-06-22T07:56:11;16.13;;;11.82;;
59147;SDS011;44930;52.878;6.168;2023-06-22T07:58:37;16.30;;;14.02;;
59147;SDS011;44930;52.878;6.168;2023-06-22T08:01:02;17.63;;;13.05;;
59147;SDS011;44930;52.878;6.168;2023-06-22T08:03:28;17.05;;;14.07;;
59147;SDS011;44930;52.878;6.168;2023-06-22T08:05:54;19.73;;;13.23;;
59147;SDS011;44930;52.878;6.168;2023-06-22T08:08:20;16.25;;;13.50;;
59147;SDS011;44930;52.878;6.168;2023-06-22T08:10:46;14.85;;;13.05;;
59147;SDS011;44930;52.878;6.168;2023-06-22T08:13:11;18.58;;;14.90;;
59147;SDS011;44930;52.878;6.168;2023-06-22T08:15:37;17.27;;;14.38;;
59147;SDS011;44930;52.878;6.168;2023-06-22T08:18:02;15.30;;;13.55;;
59147;SDS011;44930;52.878;6.168;2023-06-22T08:20:28;21.73;;;14.63;;
59147;SDS011;44930;52.878;6.168;2023-06-22T08:22:55;18.58;;;13.13;;
59147;SDS011;44930;52.878;6.168;2023-06-22T08:25:22;16.17;;;12.43;;
59147;SDS011;44930;52.878;6.168;2023-06-22T08:27:48;16.95;;;12.23;;
59147;SDS011;44930;52.878;6.168;2023-06-22T08:30:14;14.68;;;11.52;;
59147;SDS011;44930;52.878;6.168;2023-06-22T08:32:40;16.00;;;12.10;;
59147;SDS011;44930;52.878;6.168;2023-06-22T08:35:06;12.25;;;10.57;;
59147;SDS011;44930;52.878;6.168;2023-06-22T08:37:34;14.23;;;10.90;;
59147;SDS011;44930;52.878;6.168;2023-06-22T08:40:02;14.77;;;10.02;;
59147;SDS011;44930;52.878;6.168;2023-06-22T08:42:30;14.55;;;10.23;;
59147;SDS011;44930;52.878;6.168;2023-06-22T08:44:56;14.15;;;9.65;;
59147;SDS011;44930;52.878;6.168;2023-06-22T08:47:22;13.40;;;9.60;;
59147;SDS011;44930;52.878;6.168;2023-06-22T08:49:48;17.38;;;10.38;;
59147;SDS011;44930;52.878;6.168;2023-06-22T08:52:13;13.80;;;10.80;;
59147;SDS011;44930;52.878;6.168;2023-06-22T08:54:39;12.45;;;9.48;;
59147;SDS011;44930;52.878;6.168;2023-06-22T08:57:05;15.93;;;10.18;;
59147;SDS011;44930;52.878;6.168;2023-06-22T08:59:31;12.88;;;9.68;;
59147;SDS011;44930;52.878;6.168;2023-06-22T09:01:56;10.95;;;9.32;;
59147;SDS011;44930;52.878;6.168;2023-06-22T09:04:22;12.10;;;8.75;;
59147;SDS011;44930;52.878;6.168;2023-06-22T09:06:48;14.73;;;9.35;;
59147;SDS011;44930;52.878;6.168;2023-06-22T09:09:15;13.70;;;8.98;;
59147;SDS011;44930;52.878;6.168;2023-06-22T09:11:41;12.30;;;8.68;;
59147;SDS011;44930;52.878;6.168;2023-06-22T09:14:08;9.82;;;7.80;;
59147;SDS011;44930;52.878;6.168;2023-06-22T09:16:34;10.98;;;8.02;;
59147;SDS011;44930;52.878;6.168;2023-06-22T09:18:59;11.43;;;8.57;;
59147;SDS011;44930;52.878;6.168;2023-06-22T09:21:25;12.57;;;8.80;;
59147;SDS011;44930;52.878;6.168;2023-06-22T09:23:51;9.85;;;8.23;;
59147;SDS011;44930;52.878;6.168;2023-06-22T09:26:17;9.82;;;7.78;;
59147;SDS011;44930;52.878;6.168;2023-06-22T09:28:43;8.63;;;7.40;;
59147;SDS011;44930;52.878;6.168;2023-06-22T09:31:08;11.90;;;8.27;;
59147;SDS011;44930;52.878;6.168;2023-06-22T09:33:35;11.20;;;8.73;;
59147;SDS011;44930;52.878;6.168;2023-06-22T09:36:01;10.13;;;8.05;;
59147;SDS011;44930;52.878;6.168;2023-06-22T09:38:26;11.20;;;8.43;;
59147;SDS011;44930;52.878;6.168;2023-06-22T09:40:52;12.93;;;7.72;;
59147;SDS011;44930;52.878;6.168;2023-06-22T09:43:17;10.98;;;7.95;;
59147;SDS011;44930;52.878;6.168;2023-06-22T09:45:43;11.40;;;7.55;;
59147;SDS011;44930;52.878;6.168;2023-06-22T09:48:09;12.35;;;8.15;;
59147;SDS011;44930;52.878;6.168;2023-06-22T09:50:37;14.80;;;7.68;;
59147;SDS011;44930;52.878;6.168;2023-06-22T09:53:02;11.73;;;7.93;;
59147;SDS011;44930;52.878;6.168;2023-06-22T09:55:28;11.98;;;8.23;;
59147;SDS011;44930;52.878;6.168;2023-06-22T09:57:54;9.93;;;7.15;;
59147;SDS011;44930;52.878;6.168;2023-06-22T10:00:20;11.27;;;6.68;;
59147;SDS011;44930;52.878;6.168;2023-06-22T10:02:47;9.07;;;6.53;;
59147;SDS011;44930;52.878;6.168;2023-06-22T10:05:13;14.57;;;7.50;;
59147;SDS011;44930;52.878;6.168;2023-06-22T10:07:39;8.80;;;7.53;;
59147;SDS011;44930;52.878;6.168;2023-06-22T10:10:07;13.70;;;8.00;;
59147;SDS011;44930;52.878;6.168;2023-06-22T10:12:33;10.10;;;7.05;;
59147;SDS011;44930;52.878;6.168;2023-06-22T10:14:59;8.57;;;6.15;;
59147;SDS011;44930;52.878;6.168;2023-06-22T10:17:25;9.73;;;7.70;;
59147;SDS011;44930;52.878;6.168;2023-06-22T10:19:50;11.60;;;7.00;;
59147;SDS011;44930;52.878;6.168;2023-06-22T10:22:16;9.55;;;6.88;;
59147;SDS011;44930;52.878;6.168;2023-06-22T10:24:42;12.95;;;6.78;;
59147;SDS011;44930;52.878;6.168;2023-06-22T10:27:12;11.27;;;5.65;;
59147;SDS011;44930;52.878;6.168;2023-06-22T10:29:38;7.97;;;5.50;;
59147;SDS011;44930;52.878;6.168;2023-06-22T10:32:04;7.70;;;6.13;;
59147;SDS011;44930;52.878;6.168;2023-06-22T10:34:30;8.07;;;5.85;;
59147;SDS011;44930;52.878;6.168;2023-06-22T10:36:56;8.32;;;5.60;;
59147;SDS011;44930;52.878;6.168;2023-06-22T10:39:21;9.35;;;5.43;;
59147;SDS011;44930;52.878;6.168;2023-06-22T10:41:47;9.30;;;6.43;;
59147;SDS011;44930;52.878;6.168;2023-06-22T10:44:12;7.75;;;5.78;;
59147;SDS011;44930;52.878;6.168;2023-06-22T10:46:38;15.63;;;6.35;;
59147;SDS011;44930;52.878;6.168;2023-06-22T10:49:04;8.82;;;5.38;;
59147;SDS011;44930;52.878;6.168;2023-06-22T10:51:30;8.65;;;5.57;;
59147;SDS011;44930;52.878;6.168;2023-06-22T10:53:56;6.53;;;5.05;;
59147;SDS011;44930;52.878;6.168;2023-06-22T10:56:22;9.20;;;5.90;;
59147;SDS011;44930;52.878;6.168;2023-06-22T10:58:47;8.13;;;5.38;;
59147;SDS011;44930;52.878;6.168;2023-06-22T11:01:13;7.13;;;5.63;;
59147;SDS011;44930;52.878;6.168;2023-06-22T11:03:39;6.82;;;4.82;;
59147;SDS011;44930;52.878;6.168;2023-06-22T11:06:04;9.32;;;5.72;;
59147;SDS011;44930;52.878;6.168;2023-06-22T11:08:30;8.20;;;5.57;;
59147;SDS011;44930;52.878;6.168;2023-06-22T11:10:56;9.60;;;4.75;;
59147;SDS011;44930;52.878;6.168;2023-06-22T11:13:21;5.43;;;4.40;;
59147;SDS011;44930;52.878;6.168;2023-06-22T11:15:47;8.20;;;4.53;;
59147;SDS011;44930;52.878;6.168;2023-06-22T11:18:12;6.38;;;4.65;;
59147;SDS011;44930;52.878;6.168;2023-06-22T11:20:38;6.45;;;4.68;;
59147;SDS011;44930;52.878;6.168;2023-06-22T11:23:04;7.00;;;4.70;;
59147;SDS011;44930;52.878;6.168;2023-06-22T11:25:31;6.15;;;3.78;;
59147;SDS011;44930;52.878;6.168;2023-06-22T11:27:57;6.32;;;3.90;;
59147;SDS011;44930;52.878;6.168;2023-06-22T11:30:22;7.68;;;4.65;;
59147;SDS011;44930;52.878;6.168;2023-06-22T11:32:48;8.00;;;5.00;;
59147;SDS011;44930;52.878;6.168;2023-06-22T11:35:13;7.43;;;4.72;;
59147;SDS011;44930;52.878;6.168;2023-06-22T11:37:39;10.60;;;4.32;;
59147;SDS011;44930;52.878;6.168;2023-06-22T11:40:05;8.88;;;4.18;;
59147;SDS011;44930;52.878;6.168;2023-06-22T11:42:33;6.75;;;4.07;;
59147;SDS011;44930;52.878;6.168;2023-06-22T11:44:59;7.32;;;4.13;;
59147;SDS011;44930;52.878;6.168;2023-06-22T11:47:25;7.40;;;4.82;;
59147;SDS011;44930;52.878;6.168;2023-06-22T11:49:50;8.10;;;5.43;;
59147;SDS011;44930;52.878;6.168;2023-06-22T11:52:16;5.40;;;4.80;;
59147;SDS011;44930;52.878;6.168;2023-06-22T11:54:42;7.82;;;5.78;;
59147;SDS011;44930;52.878;6.168;2023-06-22T11:57:08;7.43;;;4.97;;
59147;SDS011;44930;52.878;6.168;2023-06-22T11:59:34;6.55;;;4.72;;
59147;SDS011;44930;52.878;6.168;2023-06-22T12:01:59;7.20;;;4.95;;
59147;SDS011;44930;52.878;6.168;2023-06-22T12:04:25;8.30;;;5.03;;
59147;SDS011;44930;52.878;6.168;2023-06-22T12:06:51;9.55;;;4.10;;
59147;SDS011;44930;52.878;6.168;2023-06-22T12:09:16;6.68;;;4.13;;
59147;SDS011;44930;52.878;6.168;2023-06-22T12:11:42;6.07;;;4.13;;
59147;SDS011;44930;52.878;6.168;2023-06-22T12:14:07;5.80;;;4.10;;
59147;SDS011;44930;52.878;6.168;2023-06-22T12:16:33;7.03;;;3.95;;
59147;SDS011;44930;52.878;6.168;2023-06-22T12:18:58;8.13;;;4.30;;
59147;SDS011;44930;52.878;6.168;2023-06-22T12:21:24;5.30;;;4.65;;
59147;SDS011;44930;52.878;6.168;2023-06-22T12:23:50;4.40;;;4.00;;
59147;SDS011;44930;52.878;6.168;2023-06-22T12:26:15;8.63;;;4.05;;
59147;SDS011;44930;52.878;6.168;2023-06-22T12:28:41;6.68;;;3.80;;
59147;SDS011;44930;52.878;6.168;2023-06-22T12:31:07;7.30;;;4.65;;
59147;SDS011;44930;52.878;6.168;2023-06-22T12:33:32;6.97;;;4.45;;
59147;SDS011;44930;52.878;6.168;2023-06-22T12:35:58;6.47;;;3.97;;
59147;SDS011;44930;52.878;6.168;2023-06-22T12:38:23;6.18;;;3.97;;
59147;SDS011;44930;52.878;6.168;2023-06-22T12:40:50;8.65;;;4.07;;
59147;SDS011;44930;52.878;6.168;2023-06-22T12:43:16;7.78;;;4.18;;
59147;SDS011;44930;52.878;6.168;2023-06-22T12:45:41;6.53;;;4.97;;
59147;SDS011;44930;52.878;6.168;2023-06-22T12:48:07;5.47;;;4.32;;
59147;SDS011;44930;52.878;6.168;2023-06-22T12:50:33;7.88;;;4.20;;
59147;SDS011;44930;52.878;6.168;2023-06-22T12:52:59;7.65;;;4.32;;
59147;SDS011;44930;52.878;6.168;2023-06-22T12:55:27;8.48;;;4.10;;
59147;SDS011;44930;52.878;6.168;2023-06-22T12:57:52;6.75;;;4.18;;
59147;SDS011;44930;52.878;6.168;2023-06-22T13:00:18;7.20;;;5.03;;
59147;SDS011;44930;52.878;6.168;2023-06-22T13:02:44;4.70;;;4.15;;
59147;SDS011;44930;52.878;6.168;2023-06-22T13:05:10;7.00;;;4.60;;
59147;SDS011;44930;52.878;6.168;2023-06-22T13:07:36;9.88;;;4.45;;
59147;SDS011;44930;52.878;6.168;2023-06-22T13:10:01;6.88;;;4.20;;
59147;SDS011;44930;52.878;6.168;2023-06-22T13:12:27;7.97;;;4.35;;
59147;SDS011;44930;52.878;6.168;2023-06-22T13:14:53;7.82;;;4.38;;
59147;SDS011;44930;52.878;6.168;2023-06-22T13:17:18;12.85;;;4.50;;
59147;SDS011;44930;52.878;6.168;2023-06-22T13:19:44;7.05;;;4.15;;
59147;SDS011;44930;52.878;6.168;2023-06-22T13:25:13;6.90;;;5.47;;
59147;SDS011;44930;52.878;6.168;2023-06-22T13:27:44;6.45;;;4.65;;
59147;SDS011;44930;52.878;6.168;2023-06-22T13:30:10;5.10;;;4.30;;
59147;SDS011;44930;52.878;6.168;2023-06-22T13:32:36;6.88;;;4.95;;
59147;SDS011;44930;52.878;6.168;2023-06-22T13:35:01;6.78;;;4.57;;
59147;SDS011;44930;52.878;6.168;2023-06-22T13:37:27;8.27;;;5.28;;
59147;SDS011;44930;52.878;6.168;2023-06-22T13:39:53;7.47;;;4.32;;
59147;SDS011;44930;52.878;6.168;2023-06-22T13:42:21;6.13;;;4.90;;
59147;SDS011;44930;52.878;6.168;2023-06-22T13:44:46;7.32;;;5.13;;
59147;SDS011;44930;52.878;6.168;2023-06-22T13:47:12;10.38;;;4.95;;
59147;SDS011;44930;52.878;6.168;2023-06-22T13:49:37;8.63;;;6.13;;
59147;SDS011;44930;52.878;6.168;2023-06-22T13:52:03;7.80;;;6.20;;
59147;SDS011;44930;52.878;6.168;2023-06-22T13:54:29;9.23;;;6.35;;
59147;SDS011;44930;52.878;6.168;2023-06-22T13:56:54;10.23;;;6.40;;
59147;SDS011;44930;52.878;6.168;2023-06-22T13:59:20;10.00;;;5.78;;
59147;SDS011;44930;52.878;6.168;2023-06-22T14:01:46;9.02;;;6.65;;
59147;SDS011;44930;52.878;6.168;2023-06-22T14:04:11;7.90;;;5.80;;
59147;SDS011;44930;52.878;6.168;2023-06-22T14:06:37;7.38;;;6.38;;
59147;SDS011;44930;52.878;6.168;2023-06-22T14:09:03;8.80;;;6.75;;
59147;SDS011;44930;52.878;6.168;2023-06-22T14:11:28;9.68;;;6.32;;
59147;SDS011;44930;52.878;6.168;2023-06-22T14:13:54;10.30;;;5.93;;
59147;SDS011;44930;52.878;6.168;2023-06-22T14:16:20;12.43;;;7.00;;
59147;SDS011;44930;52.878;6.168;2023-06-22T14:18:45;11.75;;;6.43;;
59147;SDS011;44930;52.878;6.168;2023-06-22T14:21:11;9.63;;;6.65;;
59147;SDS011;44930;52.878;6.168;2023-06-22T14:23:36;10.27;;;6.88;;
59147;SDS011;44930;52.878;6.168;2023-06-22T14:26:03;9.93;;;6.97;;
59147;SDS011;44930;52.878;6.168;2023-06-22T14:28:28;9.35;;;7.03;;
59147;SDS011;44930;52.878;6.168;2023-06-22T14:30:54;10.32;;;7.18;;
59147;SDS011;44930;52.878;6.168;2023-06-22T14:33:19;12.98;;;8.50;;
59147;SDS011;44930;52.878;6.168;2023-06-22T14:35:45;9.13;;;8.18;;
59147;SDS011;44930;52.878;6.168;2023-06-22T14:38:11;13.27;;;8.13;;
59147;SDS011;44930;52.878;6.168;2023-06-22T14:40:36;10.05;;;8.05;;